Time;durP1;ratioP1;P1;durP2;ratioP2;P2;SDS_P1;SDS_P2;PMS_P1;PMS_P2;Temp;Humidity;BMP_temperature;BMP_pressure;BME280_temperature;BME280_humidity;BME280_pressure;Samples;Min_cycle;Max_cycle;Signal;HPM_P1;HPM_P2
2022/05/31 00:09:34;;;;;;;13.00;11.20;;;;;;;5.69;75.29;99431.03;432035;1271;141817;-57
2022/05/31 00:19:37;;;;;;;13.10;10.40;;;;;;;5.65;75.15;99429.17;431934;1270;145353;-52
2022/05/31 00:29:40;;;;;;;11.40;10.10;;;;;;;5.52;75.26;99430.96;431453;1270;141759;-52
2022/05/31 00:39:44;;;;;;;22.40;11.00;;;;;;;5.35;75.37;99440.57;431459;1271;141467;-51
2022/05/31 00:49:50;;;;;;;16.30;10.10;;;;;;;5.28;75.99;99444.34;431870;1270;145136;-54
2022/05/31 00:59:56;;;;;;;12.60;10.00;;;;;;;5.24;76.12;99449.73;432567;1271;143158;-47
2022/05/31 01:10:00;;;;;;;11.00;9.60;;;;;;;5.17;76.13;99455.23;431926;1271;141262;-51
2022/05/31 01:20:06;;;;;;;10.40;9.20;;;;;;;5.18;76.16;99457.45;433049;1270;141672;-50
2022/05/31 01:30:10;;;;;;;13.50;9.30;;;;;;;5.20;76.43;99462.41;433249;1270;141494;-53
2022/05/31 01:40:20;;;;;;;13.50;8.80;;;;;;;5.20;76.71;99464.13;432788;1271;141364;-54
2022/05/31 01:50:24;;;;;;;17.80;11.00;;;;;;;5.10;76.78;99475.17;431717;1271;141587;-53
2022/05/31 02:00:27;;;;;;;23.40;12.60;;;;;;;4.98;76.98;99487.11;432271;1271;143219;-53
2022/05/31 02:10:32;;;;;;;19.40;11.00;;;;;;;4.84;77.17;99483.39;431453;1271;142543;-53
2022/05/31 02:20:35;;;;;;;15.80;10.90;;;;;;;4.74;77.24;99486.53;431749;1271;142148;-54
2022/05/31 02:30:38;;;;;;;18.20;11.00;;;;;;;4.62;77.07;99493.80;432426;1271;141860;-53
2022/05/31 02:40:41;;;;;;;14.80;10.50;;;;;;;4.58;77.21;99491.00;430994;1271;143528;-55
2022/05/31 02:50:44;;;;;;;12.00;10.70;;;;;;;4.59;77.05;99494.77;432932;1270;141805;-53
2022/05/31 03:00:47;;;;;;;11.50;10.30;;;;;;;4.73;77.20;99508.25;431484;1270;142944;-53
2022/05/31 03:10:53;;;;;;;10.30;8.80;;;;;;;6.87;77.99;99511.15;431387;1270;147211;-52
2022/05/31 03:21:00;;;;;;;12.90;9.20;;;;;;;10.40;73.18;99510.39;432375;1271;141403;-50
2022/05/31 03:31:03;;;;;;;14.10;9.00;;;;;;;10.54;68.21;99516.19;431497;1271;142667;-55
2022/05/31 03:41:06;;;;;;;12.40;9.40;;;;;;;9.24;68.47;99521.40;432807;1270;141902;-57
2022/05/31 03:51:12;;;;;;;11.50;8.90;;;;;;;8.75;69.19;99519.39;432307;1270;142671;-51
2022/05/31 04:01:15;;;;;;;8.80;7.90;;;;;;;9.52;70.83;99524.45;433124;1270;142910;-52
2022/05/31 04:11:18;;;;;;;9.40;7.20;;;;;;;17.20;66.50;99525.95;446562;1270;141976;-56
2022/05/31 04:21:21;;;;;;;7.00;6.30;;;;;;;23.94;56.07;99520.02;445697;1271;143976;-56
2022/05/31 04:31:25;;;;;;;7.00;6.30;;;;;;;28.96;47.66;99518.40;436493;1270;141090;-54
2022/05/31 04:41:30;;;;;;;6.20;5.60;;;;;;;32.64;40.44;99528.63;438799;1270;142704;-55
2022/05/31 04:51:34;;;;;;;5.30;4.80;;;;;;;35.11;35.32;99533.85;447674;1270;140991;-56
2022/05/31 05:01:38;;;;;;;5.10;4.60;;;;;;;37.18;31.57;99537.52;447416;1271;142445;-58
2022/05/31 05:11:41;;;;;;;4.80;4.40;;;;;;;39.56;27.98;99530.35;447722;1270;142631;-57
2022/05/31 05:21:44;;;;;;;8.60;4.10;;;;;;;41.45;24.99;99527.75;440669;1271;141927;-54
2022/05/31 05:31:47;;;;;;;;;;;;;;;43.22;22.69;99530.48;445193;1271;141157;-56
2022/05/31 05:41:50;;;;;;;8.00;4.10;;;;;;;44.37;20.54;99529.39;447826;1270;128058;-56
2022/05/31 05:51:58;;;;;;;3.90;3.50;;;;;;;46.17;19.33;99536.40;447636;1270;142846;-57
2022/05/31 06:02:08;;;;;;;3.00;2.80;;;;;;;47.10;18.00;99532.19;446935;1270;141173;-56
2022/05/31 06:12:35;;;;;;;6.10;3.80;;;;;;;48.25;16.26;99537.05;439778;1271;141003;-57
2022/05/31 06:22:39;;;;;;;;;;;;;;;49.30;15.41;99540.71;447444;1270;142577;-57
2022/05/31 06:32:42;;;;;;;7.40;3.20;;;;;;;50.75;14.30;99554.30;447722;1271;183427;-57
2022/05/31 06:42:45;;;;;;;3.50;3.30;;;;;;;51.61;13.36;99558.95;447674;1271;141697;-57
2022/05/31 07:03:09;;;;;;;5.70;5.50;;;;;;;53.81;11.63;99561.96;446851;1271;141557;-57
2022/05/31 07:13:12;;;;;;;8.40;7.70;;;;;;;54.56;10.69;99559.90;445698;1271;142104;-56
2022/05/31 07:23:14;;;;;;;;;;;;;;;54.75;9.84;99558.55;443062;1268;142136;-56
2022/05/31 07:33:17;;;;;;;12.50;12.10;;;;;;;54.91;9.90;99555.73;447880;1271;128073;-57
2022/05/31 07:43:40;;;;;;;9.70;9.20;;;;;;;55.20;9.66;99556.34;442354;1270;142698;-57
2022/05/31 07:53:43;;;;;;;3.10;1.70;;;;;;;53.27;9.05;99543.16;434705;1271;140546;-57
2022/05/31 08:03:46;;;;;;;1.00;1.00;;;;;;;42.85;11.76;99542.48;434291;1270;141541;-55
2022/05/31 08:13:50;;;;;;;1.40;1.30;;;;;;;35.29;15.11;99554.41;444964;1270;140441;-57
2022/05/31 08:23:53;;;;;;;2.90;1.50;;;;;;;31.62;17.76;99558.25;442831;1270;142765;-55
2022/05/31 08:34:00;;;;;;;1.30;1.10;;;;;;;29.07;19.86;99564.30;435902;1271;452432;-56
2022/05/31 08:44:12;;;;;;;2.20;1.60;;;;;;;27.02;22.00;99569.40;430584;1271;141482;-56
2022/05/31 09:04:45;;;;;;;1.60;1.10;;;;;;;24.89;24.45;99575.64;431559;1271;140853;-55
2022/05/31 09:14:55;;;;;;;0.90;0.90;;;;;;;24.82;25.04;99573.65;431681;1271;142027;-56
2022/05/31 09:24:58;;;;;;;1.30;0.70;;;;;;;24.52;25.50;99569.38;433515;1271;141819;-55
2022/05/31 09:35:17;;;;;;;1.40;1.00;;;;;;;24.19;25.46;99571.85;431485;1270;164722;-56
2022/05/31 09:45:21;;;;;;;0.80;0.80;;;;;;;23.65;26.23;99568.45;433803;1270;140633;-56
2022/05/31 10:06:07;;;;;;;5.80;1.20;;;;;;;23.05;26.80;99559.88;432417;1270;141201;-56
2022/05/31 10:16:15;;;;;;;3.00;1.00;;;;;;;22.70;27.36;99557.49;432122;1270;145230;-55
2022/05/31 10:26:26;;;;;;;0.90;0.70;;;;;;;22.37;28.18;99554.41;433622;1270;141579;-55
2022/05/31 10:36:32;;;;;;;3.30;1.50;;;;;;;22.17;28.58;99551.35;434854;1269;142166;-55
2022/05/31 10:46:37;;;;;;;1.70;0.90;;;;;;;22.27;28.87;99544.38;437798;1271;141481;-56
2022/05/31 10:56:48;;;;;;;2.80;1.00;;;;;;;22.42;28.85;99535.52;444491;1270;142345;-56
2022/05/31 11:07:03;;;;;;;1.40;0.70;;;;;;;22.87;28.26;99528.26;442299;1270;141021;-58
2022/05/31 11:17:24;;;;;;;1.00;0.80;;;;;;;23.02;28.51;99527.90;442673;1270;141549;-56
2022/05/31 11:27:39;;;;;;;0.90;0.90;;;;;;;23.19;28.54;99513.45;444211;1270;141841;-55
2022/05/31 11:37:57;;;;;;;7.20;1.10;;;;;;;23.09;28.70;99508.06;437464;1270;153000;-55
2022/05/31 11:48:24;;;;;;;2.80;1.40;;;;;;;23.23;28.66;99507.04;443683;1268;141014;-56
2022/05/31 11:58:39;;;;;;;1.30;1.10;;;;;;;23.10;28.72;99493.12;433621;1270;140992;-55
2022/05/31 12:08:51;;;;;;;1.90;0.90;;;;;;;23.19;28.85;99495.16;447584;1270;142119;-57
2022/05/31 12:19:03;;;;;;;1.10;1.00;;;;;;;23.26;28.80;99489.37;435454;1270;141905;-55
2022/05/31 12:29:18;;;;;;;0.90;0.80;;;;;;;23.22;28.50;99478.55;435994;1270;145129;-55
2022/05/31 12:39:27;;;;;;;0.90;0.80;;;;;;;23.57;28.46;99471.46;432243;1270;140997;-56
2022/05/31 12:49:32;;;;;;;4.00;1.20;;;;;;;23.39;28.68;99467.19;432527;1270;146351;-55
2022/05/31 12:59:55;;;;;;;0.80;0.70;;;;;;;23.19;28.72;99451.86;443400;1270;145270;-56
2022/05/31 13:10:34;;;;;;;5.10;0.90;;;;;;;22.22;29.39;99445.59;447768;1270;144666;-56
2022/05/31 13:20:41;;;;;;;1.30;1.30;;;;;;;22.07;29.72;99440.95;447005;1270;142500;-56
2022/05/31 13:30:44;;;;;;;3.10;0.90;;;;;;;21.80;29.58;99441.36;447829;1269;140991;-56
2022/05/31 13:40:49;;;;;;;3.20;1.20;;;;;;;21.58;30.52;99436.82;441483;1271;141789;-57
2022/05/31 13:50:55;;;;;;;1.10;1.00;;;;;;;21.48;30.81;99432.88;435826;1270;146464;-55
2022/05/31 14:01:00;;;;;;;3.20;1.10;;;;;;;21.57;31.23;99426.27;447580;1271;141489;-56
2022/05/31 14:11:09;;;;;;;1.50;1.00;;;;;;;21.45;31.14;99422.17;446829;1271;141786;-56
2022/05/31 14:21:13;;;;;;;1.50;1.00;;;;;;;20.99;31.33;99413.45;447568;1270;141670;-55
2022/05/31 14:31:25;;;;;;;2.60;2.00;;;;;;;20.60;31.30;99416.09;446088;1269;146078;-57
2022/05/31 14:41:35;;;;;;;3.80;1.40;;;;;;;21.00;31.46;99406.23;441996;1270;141158;-57
2022/05/31 14:51:39;;;;;;;1.40;1.10;;;;;;;21.39;31.38;99392.27;435465;1271;141831;-55
2022/05/31 15:01:45;;;;;;;1.40;0.80;;;;;;;21.26;31.78;99386.11;438537;1270;146128;-58
2022/05/31 15:22:24;;;;;;;1.20;1.20;;;;;;;20.74;32.18;99379.16;435894;1270;142784;-55
2022/05/31 15:32:27;;;;;;;2.70;1.10;;;;;;;20.93;31.83;99378.70;432381;1268;141833;-56
2022/05/31 15:42:30;;;;;;;1.40;1.30;;;;;;;21.48;31.54;99370.62;434396;1269;146257;-56
2022/05/31 15:52:38;;;;;;;6.50;1.60;;;;;;;21.55;31.13;99363.90;432581;1271;145540;-56
2022/05/31 16:02:41;;;;;;;2.10;1.80;;;;;;;21.30;31.26;99353.45;432666;1270;141018;-55
2022/05/31 16:12:45;;;;;;;1.40;1.30;;;;;;;20.98;31.74;99343.52;433445;1270;141136;-57
2022/05/31 16:22:50;;;;;;;1.60;1.30;;;;;;;20.79;32.21;99330.38;433304;1270;141330;-55
2022/05/31 16:32:53;;;;;;;1.40;1.20;;;;;;;20.37;32.88;99332.31;433437;1270;141603;-54
2022/05/31 16:42:56;;;;;;;0.80;0.80;;;;;;;20.00;33.01;99323.84;431438;1270;142146;-54
2022/05/31 16:53:01;;;;;;;2.40;1.10;;;;;;;20.02;32.45;99312.94;430291;1270;141417;-52
2022/05/31 17:03:04;;;;;;;2.40;1.20;;;;;;;19.66;32.50;99304.50;430741;1271;141960;-54
2022/05/31 17:23:33;;;;;;;1.30;1.20;;;;;;;19.30;33.48;99285.27;431344;1270;142518;-54
2022/05/31 17:33:36;;;;;;;1.20;1.10;;;;;;;19.08;33.98;99289.12;431947;1271;142043;-52
2022/05/31 17:43:39;;;;;;;1.80;1.30;;;;;;;18.81;34.41;99292.25;434062;1271;142285;-55
2022/05/31 17:53:43;;;;;;;6.60;2.00;;;;;;;18.52;34.69;99294.14;430612;1271;141681;-52
2022/05/31 18:03:46;;;;;;;2.60;1.50;;;;;;;18.21;35.40;99297.57;433413;1270;141551;-51
2022/05/31 18:13:50;;;;;;;4.40;1.70;;;;;;;17.94;36.61;99298.80;431055;1270;142110;-56
2022/05/31 18:23:56;;;;;;;3.40;1.60;;;;;;;17.73;37.85;99300.86;431314;1271;145009;-53
2022/05/31 18:33:59;;;;;;;2.90;2.30;;;;;;;17.58;38.94;99294.59;432560;1271;145852;-55
2022/05/31 18:44:01;;;;;;;1.90;1.60;;;;;;;17.44;39.43;99289.04;433135;1271;141303;-53
2022/05/31 18:54:07;;;;;;;3.90;3.20;;;;;;;17.32;39.80;99277.11;431419;1270;146131;-53
2022/05/31 19:04:10;;;;;;;3.60;1.90;;;;;;;17.16;40.22;99280.41;432798;1271;141777;-55
2022/05/31 19:14:13;;;;;;;8.10;2.20;;;;;;;16.98;40.51;99283.27;431684;1271;145112;-51
2022/05/31 19:24:16;;;;;;;2.20;1.70;;;;;;;16.89;40.90;99283.98;430693;1271;141414;-52
2022/05/31 19:34:28;;;;;;;3.70;2.10;;;;;;;16.80;41.29;99283.74;431297;1270;142260;-53
2022/05/31 19:44:31;;;;;;;2.50;2.30;;;;;;;16.69;41.78;99285.10;432258;1271;145230;-55
2022/05/31 19:54:34;;;;;;;2.80;2.10;;;;;;;16.57;42.29;99286.63;430710;1270;144625;-53
2022/05/31 20:04:37;;;;;;;3.50;3.00;;;;;;;16.45;42.98;99284.73;432209;1271;144487;-53
2022/05/31 20:14:41;;;;;;;3.20;2.60;;;;;;;16.34;43.79;99283.98;432484;1270;141438;-53
2022/05/31 20:24:45;;;;;;;3.00;2.80;;;;;;;16.18;44.75;99297.30;432015;1271;141512;-54
2022/05/31 20:34:48;;;;;;;3.90;3.60;;;;;;;15.98;45.81;99299.73;431370;1270;377043;-56
2022/05/31 20:44:52;;;;;;;3.90;3.50;;;;;;;15.79;46.82;99298.49;431345;1271;142841;-54
2022/05/31 20:54:55;;;;;;;3.30;3.00;;;;;;;15.57;47.80;99292.10;431250;1271;142128;-54
2022/05/31 21:05:00;;;;;;;3.80;3.50;;;;;;;15.39;49.12;99294.95;433983;1270;141354;-52
2022/05/31 21:15:05;;;;;;;5.30;3.30;;;;;;;15.19;50.31;99279.04;431916;1271;143143;-51
2022/05/31 21:25:22;;;;;;;4.50;3.60;;;;;;;14.99;51.45;99271.88;434410;1271;141975;-53
2022/05/31 21:35:29;;;;;;;4.50;3.90;;;;;;;14.85;52.42;99255.94;432952;1270;141611;-55
2022/05/31 21:45:33;;;;;;;4.20;3.10;;;;;;;14.77;53.08;99236.73;431301;1271;140990;-54
2022/05/31 21:55:38;;;;;;;3.70;3.40;;;;;;;14.68;53.24;99229.73;431151;1271;141305;-54
2022/05/31 22:05:41;;;;;;;4.10;3.70;;;;;;;14.59;54.29;99203.86;438054;1270;142491;-55
2022/05/31 22:15:44;;;;;;;4.30;3.60;;;;;;;14.51;55.07;99190.48;444053;1271;141630;-52
2022/05/31 22:25:47;;;;;;;4.70;4.10;;;;;;;14.44;55.81;99193.08;444277;1271;143719;-53
2022/05/31 22:35:54;;;;;;;3.90;3.50;;;;;;;14.36;56.35;99171.21;446657;1271;146980;-53
2022/05/31 22:45:57;;;;;;;4.20;3.70;;;;;;;14.31;56.93;99165.44;434019;1271;141322;-51
2022/05/31 22:56:00;;;;;;;3.20;2.90;;;;;;;14.34;57.37;99145.98;444098;1270;145303;-53
2022/05/31 23:06:03;;;;;;;2.40;2.30;;;;;;;14.40;57.53;99168.03;446935;1270;142274;-54
2022/05/31 23:16:16;;;;;;;3.10;2.90;;;;;;;14.41;57.92;99158.19;434206;1271;143083;-53
2022/05/31 23:26:24;;;;;;;3.60;3.30;;;;;;;14.34;58.33;99149.86;436335;1271;147813;-54
2022/05/31 23:36:27;;;;;;;;;;;;;;;14.21;58.79;99148.70;443000;1270;142553;-54
2022/05/31 23:46:30;;;;;;;3.50;3.20;;;;;;;14.03;59.64;99125.44;441346;1271;127849;-55
2022/05/31 23:56:34;;;;;;;5.10;3.30;;;;;;;13.86;60.41;99121.09;441364;1271;141394;-49
